Time;durP1;ratioP1;P1;durP2;ratioP2;P2;SDS_P1;SDS_P2;PMS_P1;PMS_P2;Temp;Humidity;BMP_temperature;BMP_pressure;BME280_temperature;BME280_humidity;BME280_pressure;Samples;Min_cycle;Max_cycle;Signal;HPM_P1;HPM_P2
2022/06/07 00:01:18;;;;;;;8.13;5.43;;;;;;;;;;5071892;28;20115;-75
2022/06/07 00:03:44;;;;;;;6.60;5.50;;;;;;;;;;5074295;28;20446;-77
2022/06/07 00:06:12;;;;;;;6.95;5.35;;;;;;;;;;5082911;28;20050;-75
2022/06/07 00:08:38;;;;;;;6.78;5.45;;;;;;;;;;5057903;28;20048;-76
2022/06/07 00:11:04;;;;;;;6.57;4.95;;;;;;;;;;5072772;28;20021;-75
2022/06/07 00:13:31;;;;;;;6.22;5.45;;;;;;;;;;5054288;28;20551;-76
2022/06/07 00:16:00;;;;;;;7.47;5.40;;;;;;;;;;5061179;28;20025;-76
2022/06/07 00:18:29;;;;;;;8.00;5.30;;;;;;;;;;5075680;28;20025;-75
2022/06/07 00:21:04;;;;;;;7.40;5.55;;;;;;;;;;5082146;28;20043;-75
2022/06/07 00:23:32;;;;;;;7.80;5.47;;;;;;;;;;5058340;28;20170;-75
2022/06/07 00:25:58;;;;;;;5.72;5.22;;;;;;;;;;5073532;28;20028;-77
2022/06/07 00:28:25;;;;;;;6.18;5.50;;;;;;;;;;5073857;28;20029;-76
2022/06/07 00:30:51;;;;;;;7.75;5.80;;;;;;;;;;5053864;28;20039;-77
2022/06/07 00:33:18;;;;;;;6.15;5.55;;;;;;;;;;5076928;28;20040;-76
2022/06/07 00:35:56;;;;;;;9.05;5.47;;;;;;;;;;5064251;28;20025;-75
2022/06/07 00:38:31;;;;;;;5.97;5.38;;;;;;;;;;5066474;28;20540;-75
2022/06/07 00:40:57;;;;;;;6.57;5.88;;;;;;;;;;5059249;28;20060;-76
2022/06/07 00:43:25;;;;;;;6.20;5.00;;;;;;;;;;5069490;28;20103;-77
2022/06/07 00:45:51;;;;;;;8.32;5.70;;;;;;;;;;5073402;28;20020;-76
2022/06/07 00:48:18;;;;;;;6.35;5.15;;;;;;;;;;5073692;28;20028;-77
2022/06/07 00:50:44;;;;;;;7.13;5.57;;;;;;;;;;5073278;28;20021;-76
2022/06/07 00:53:38;;;;;;;6.85;5.75;;;;;;;;;;5076012;28;20488;-76
2022/06/07 00:56:05;;;;;;;9.27;5.93;;;;;;;;;;5059395;28;20053;-76
2022/06/07 00:58:32;;;;;;;9.15;5.70;;;;;;;;;;5055698;28;20452;-78
2022/06/07 01:00:59;;;;;;;6.80;5.82;;;;;;;;;;5062765;28;20102;-76
2022/06/07 01:03:26;;;;;;;13.32;6.32;;;;;;;;;;5072807;28;20027;-76
2022/06/07 01:05:52;;;;;;;9.52;5.85;;;;;;;;;;5071694;28;20017;-77
2022/06/07 01:11:03;;;;;;;9.93;5.35;;;;;;;;;;5072794;28;20086;-77
2022/06/07 01:13:32;;;;;;;6.53;5.80;;;;;;;;;;5055077;28;20032;-76
2022/06/07 01:15:59;;;;;;;7.80;5.72;;;;;;;;;;5071839;28;20413;-76
2022/06/07 01:18:25;;;;;;;7.15;5.90;;;;;;;;;;5091912;28;20028;-77
2022/06/07 01:21:10;;;;;;;8.82;5.90;;;;;;;;;;5088837;28;20532;-77
2022/06/07 01:23:36;;;;;;;6.10;5.38;;;;;;;;;;5072529;28;20379;-76
2022/06/07 01:26:02;;;;;;;9.40;5.88;;;;;;;;;;5078041;28;20059;-76
2022/06/07 01:28:28;;;;;;;6.95;5.80;;;;;;;;;;5072365;28;20040;-77
2022/06/07 01:30:57;;;;;;;8.90;5.72;;;;;;;;;;5073696;28;20033;-77
2022/06/07 01:33:23;;;;;;;12.38;6.80;;;;;;;;;;5072458;28;20047;-78
2022/06/07 01:35:59;;;;;;;7.85;6.22;;;;;;;;;;5057252;28;20028;-77
2022/06/07 01:38:25;;;;;;;6.85;5.70;;;;;;;;;;5071575;28;20029;-77
2022/06/07 01:43:42;;;;;;;7.18;6.20;;;;;;;;;;5068827;28;20039;-75
2022/06/07 01:46:08;;;;;;;9.75;6.40;;;;;;;;;;5052667;28;20037;-77
2022/06/07 01:48:34;;;;;;;7.65;6.40;;;;;;;;;;5060037;28;20099;-76
2022/06/07 01:51:03;;;;;;;8.95;6.40;;;;;;;;;;5075335;28;20412;-75
2022/06/07 01:53:29;;;;;;;11.50;6.10;;;;;;;;;;5055425;28;20552;-76
2022/06/07 01:56:10;;;;;;;7.88;5.90;;;;;;;;;;5054278;28;20124;-76
2022/06/07 01:58:37;;;;;;;6.63;5.78;;;;;;;;;;5070496;28;20025;-76
2022/06/07 02:01:04;;;;;;;6.63;5.65;;;;;;;;;;5071121;28;20033;-76
2022/06/07 02:03:33;;;;;;;7.35;6.65;;;;;;;;;;5078816;28;20485;-75
2022/06/07 02:06:04;;;;;;;7.05;5.70;;;;;;;;;;5054609;28;20060;-75
2022/06/07 02:08:30;;;;;;;7.57;6.00;;;;;;;;;;5073508;28;20044;-75
2022/06/07 02:10:56;;;;;;;7.35;6.25;;;;;;;;;;5092756;28;20020;-76
2022/06/07 02:13:23;;;;;;;10.07;6.50;;;;;;;;;;5092484;28;20059;-75
2022/06/07 02:15:51;;;;;;;8.23;6.03;;;;;;;;;;5074496;28;20028;-76
2022/06/07 02:18:17;;;;;;;6.85;5.90;;;;;;;;;;5070345;28;20031;-75
2022/06/07 02:20:44;;;;;;;6.68;6.07;;;;;;;;;;5072473;28;20024;-78
2022/06/07 02:23:10;;;;;;;7.30;6.55;;;;;;;;;;5067451;28;20031;-75
2022/06/07 02:25:41;;;;;;;8.55;6.20;;;;;;;;;;5081954;28;20025;-76
2022/06/07 02:28:07;;;;;;;9.57;6.32;;;;;;;;;;5072076;28;20124;-77
2022/06/07 02:30:34;;;;;;;9.23;6.15;;;;;;;;;;5054470;28;20116;-77
2022/06/07 02:33:00;;;;;;;8.35;6.18;;;;;;;;;;5085444;28;20035;-76
2022/06/07 02:35:26;;;;;;;10.73;6.60;;;;;;;;;;5079912;28;20082;-76
2022/06/07 02:37:53;;;;;;;7.45;6.40;;;;;;;;;;5060375;28;20042;-76
2022/06/07 02:40:19;;;;;;;7.47;6.78;;;;;;;;;;5067952;28;20513;-77
2022/06/07 02:42:45;;;;;;;8.02;5.97;;;;;;;;;;5064605;28;20053;-76
2022/06/07 02:45:13;;;;;;;8.30;6.40;;;;;;;;;;5068269;28;20024;-76
2022/06/07 02:47:39;;;;;;;6.85;6.10;;;;;;;;;;5068877;28;20070;-76
2022/06/07 02:50:05;;;;;;;10.82;6.40;;;;;;;;;;5062667;28;20100;-77
2022/06/07 02:52:31;;;;;;;7.43;6.30;;;;;;;;;;5051842;28;20029;-76
2022/06/07 02:54:57;;;;;;;8.77;6.50;;;;;;;;;;5070206;28;20052;-75
2022/06/07 02:57:25;;;;;;;7.72;6.32;;;;;;;;;;5071372;28;20390;-76
2022/06/07 02:59:52;;;;;;;7.40;6.50;;;;;;;;;;5072233;28;20020;-76
2022/06/07 03:02:18;;;;;;;9.13;6.70;;;;;;;;;;5053461;28;20025;-76
2022/06/07 03:04:44;;;;;;;8.35;6.15;;;;;;;;;;5070193;28;20165;-76
2022/06/07 03:07:15;;;;;;;9.95;6.90;;;;;;;;;;5076564;28;20029;-76
2022/06/07 03:09:44;;;;;;;8.23;6.40;;;;;;;;;;5088443;28;20047;-76
2022/06/07 03:12:15;;;;;;;8.73;6.10;;;;;;;;;;5094131;28;20031;-76
2022/06/07 03:14:42;;;;;;;8.63;6.57;;;;;;;;;;5086759;28;20028;-76
2022/06/07 03:17:10;;;;;;;11.43;6.80;;;;;;;;;;5075056;28;20044;-76
2022/06/07 03:19:37;;;;;;;9.95;6.50;;;;;;;;;;5076695;28;20049;-76
2022/06/07 03:22:04;;;;;;;16.48;7.95;;;;;;;;;;5059276;28;20033;-75
2022/06/07 03:24:30;;;;;;;12.65;6.90;;;;;;;;;;5040295;28;20551;-76
2022/06/07 03:27:00;;;;;;;9.55;6.78;;;;;;;;;;5078467;28;20051;-75
2022/06/07 03:29:29;;;;;;;16.40;7.55;;;;;;;;;;5056130;28;20036;-76
2022/06/07 03:31:55;;;;;;;9.05;5.97;;;;;;;;;;5073938;28;20034;-77
2022/06/07 03:34:24;;;;;;;9.27;6.00;;;;;;;;;;5072660;28;20573;-77
2022/06/07 03:36:53;;;;;;;7.40;6.00;;;;;;;;;;5057711;28;20370;-76
2022/06/07 03:39:21;;;;;;;8.57;5.80;;;;;;;;;;5070295;28;20074;-76
2022/06/07 03:41:47;;;;;;;8.02;6.25;;;;;;;;;;5074556;28;20545;-76
2022/06/07 03:44:13;;;;;;;11.18;6.47;;;;;;;;;;5077176;28;20037;-76
2022/06/07 03:46:41;;;;;;;7.63;5.88;;;;;;;;;;5068824;28;20039;-77
2022/06/07 03:49:09;;;;;;;8.90;6.03;;;;;;;;;;5077584;28;20187;-76
2022/06/07 03:51:35;;;;;;;7.80;5.57;;;;;;;;;;5074559;28;20024;-76
2022/06/07 03:54:02;;;;;;;7.60;5.70;;;;;;;;;;5064243;28;20024;-76
2022/06/07 03:56:28;;;;;;;7.63;6.20;;;;;;;;;;5058227;28;20041;-75
2022/06/07 03:58:57;;;;;;;10.13;5.97;;;;;;;;;;5068821;28;20028;-76
2022/06/07 04:01:24;;;;;;;9.57;6.47;;;;;;;;;;5052094;28;20501;-76
2022/06/07 04:03:52;;;;;;;12.27;6.30;;;;;;;;;;5070841;28;20024;-77
2022/06/07 04:08:10;;;;;;;12.10;5.82;;;;;;;;;;5086868;28;20020;-76
2022/06/07 04:09:42;;;;;;;9.15;6.47;;;;;;;;;;5088153;28;20064;-76
2022/06/07 04:12:09;;;;;;;10.00;5.88;;;;;;;;;;5063789;28;20027;-76
2022/06/07 04:14:39;;;;;;;10.93;5.40;;;;;;;;;;5062448;28;20031;-75
2022/06/07 04:17:06;;;;;;;10.70;5.85;;;;;;;;;;5063830;28;20433;-76
2022/06/07 04:19:37;;;;;;;10.80;5.75;;;;;;;;;;5074055;28;20017;-75
2022/06/07 04:22:04;;;;;;;10.18;5.82;;;;;;;;;;5089092;28;20020;-77
2022/06/07 04:24:30;;;;;;;12.65;5.38;;;;;;;;;;5055162;28;20029;-76
2022/06/07 04:26:57;;;;;;;8.75;6.13;;;;;;;;;;5076433;28;20028;-75
2022/06/07 04:29:23;;;;;;;9.00;6.00;;;;;;;;;;5089847;28;20564;-75
2022/06/07 04:31:49;;;;;;;11.63;6.30;;;;;;;;;;5058605;28;20504;-76
2022/06/07 04:34:15;;;;;;;12.52;6.72;;;;;;;;;;5060999;28;20060;-76
2022/06/07 04:36:41;;;;;;;13.77;6.53;;;;;;;;;;5046533;28;20032;-77
2022/06/07 04:39:07;;;;;;;13.27;6.40;;;;;;;;;;5066472;28;20382;-75
2022/06/07 04:41:34;;;;;;;10.27;6.65;;;;;;;;;;5073117;28;20025;-80
2022/06/07 04:44:00;;;;;;;14.57;7.45;;;;;;;;;;5073391;28;20024;-77
2022/06/07 04:46:27;;;;;;;9.48;6.82;;;;;;;;;;5073362;28;20047;-77
2022/06/07 04:48:54;;;;;;;8.60;6.82;;;;;;;;;;5058845;28;20076;-76
2022/06/07 04:51:21;;;;;;;9.77;6.65;;;;;;;;;;5068955;28;20033;-82
2022/06/07 04:53:48;;;;;;;13.68;7.32;;;;;;;;;;5054695;28;20024;-77
2022/06/07 04:56:17;;;;;;;9.95;6.90;;;;;;;;;;5072804;28;20025;-81
2022/06/07 04:58:43;;;;;;;9.63;6.80;;;;;;;;;;5055836;28;20025;-82
2022/06/07 05:01:14;;;;;;;9.35;6.95;;;;;;;;;;5054169;28;20043;-86
2022/06/07 05:03:40;;;;;;;11.13;7.30;;;;;;;;;;5072464;28;20040;-86
2022/06/07 05:06:36;;;;;;;11.45;6.60;;;;;;;;;;5073180;28;20025;-86
2022/06/07 05:09:04;;;;;;;7.72;6.70;;;;;;;;;;4968965;28;20043;-77
2022/06/07 05:11:30;;;;;;;9.38;6.47;;;;;;;;;;4954353;28;20528;-79
2022/06/07 05:13:57;;;;;;;8.90;6.07;;;;;;;;;;4971841;28;20137;-87
2022/06/07 05:16:23;;;;;;;10.73;6.35;;;;;;;;;;4978704;28;20043;-81
2022/06/07 05:18:50;;;;;;;9.43;6.40;;;;;;;;;;4971100;28;20109;-74
2022/06/07 05:21:18;;;;;;;8.70;6.40;;;;;;;;;;4970906;28;20031;-80
2022/06/07 05:23:44;;;;;;;7.82;6.10;;;;;;;;;;4975857;28;20501;-76
2022/06/07 05:26:10;;;;;;;10.45;6.57;;;;;;;;;;4973255;28;20038;-80
2022/06/07 05:28:38;;;;;;;7.38;6.18;;;;;;;;;;4972519;28;20048;-88
2022/06/07 05:31:05;;;;;;;8.88;6.70;;;;;;;;;;4971325;28;20169;-80
2022/06/07 05:33:31;;;;;;;9.15;6.43;;;;;;;;;;4975575;28;20035;-79
2022/06/07 05:35:58;;;;;;;12.73;6.20;;;;;;;;;;4981303;28;20503;-77
2022/06/07 05:38:25;;;;;;;9.00;6.10;;;;;;;;;;4971093;28;20147;-81
2022/06/07 05:40:51;;;;;;;9.02;6.30;;;;;;;;;;4980695;28;20109;-76
2022/06/07 05:43:17;;;;;;;8.40;6.50;;;;;;;;;;4975902;28;20448;-74
2022/06/07 05:45:47;;;;;;;7.70;6.60;;;;;;;;;;5035593;28;20064;-74
2022/06/07 05:48:14;;;;;;;9.32;6.38;;;;;;;;;;5084655;28;20083;-80
2022/06/07 05:50:40;;;;;;;10.07;6.70;;;;;;;;;;5071664;28;20115;-74
2022/06/07 05:53:06;;;;;;;7.68;6.80;;;;;;;;;;5070274;28;20016;-77
2022/06/07 05:55:32;;;;;;;7.18;6.43;;;;;;;;;;5070508;28;20032;-76
2022/06/07 05:58:00;;;;;;;7.10;6.28;;;;;;;;;;5074430;28;20085;-82
2022/06/07 06:00:26;;;;;;;16.02;6.68;;;;;;;;;;5051676;28;20024;-81
2022/06/07 06:02:52;;;;;;;15.50;6.80;;;;;;;;;;5074850;28;20039;-80
2022/06/07 06:05:18;;;;;;;12.43;7.10;;;;;;;;;;5086033;28;20534;-75
2022/06/07 06:10:47;;;;;;;9.40;6.47;;;;;;;;;;4995085;28;20034;-74
2022/06/07 06:13:13;;;;;;;8.68;6.47;;;;;;;;;;4992818;28;20043;-84
2022/06/07 06:15:39;;;;;;;17.52;6.78;;;;;;;;;;4990543;28;20041;-77
2022/06/07 06:18:05;;;;;;;12.82;7.20;;;;;;;;;;4989250;28;20046;-78
2022/06/07 06:20:32;;;;;;;7.60;6.00;;;;;;;;;;4991229;28;20023;-74
2022/06/07 06:22:58;;;;;;;10.38;6.10;;;;;;;;;;4998212;28;20094;-84
2022/06/07 06:25:25;;;;;;;7.55;5.22;;;;;;;;;;4993578;28;20030;-91
2022/06/07 06:27:51;;;;;;;13.55;6.18;;;;;;;;;;4989803;28;20026;-81
2022/06/07 06:30:20;;;;;;;8.07;5.82;;;;;;;;;;4982696;28;20045;-80
2022/06/07 06:32:46;;;;;;;12.55;6.50;;;;;;;;;;4992657;28;20038;-78
2022/06/07 06:35:12;;;;;;;12.80;6.38;;;;;;;;;;4993925;28;20066;-80
2022/06/07 06:37:38;;;;;;;10.13;5.97;;;;;;;;;;4985963;28;20577;-79
2022/06/07 06:40:05;;;;;;;9.40;6.00;;;;;;;;;;4981533;28;20116;-80
2022/06/07 06:42:33;;;;;;;20.48;6.20;;;;;;;;;;4984843;28;20031;-81
2022/06/07 06:45:00;;;;;;;26.73;6.22;;;;;;;;;;5035676;28;20028;-83
2022/06/07 06:47:26;;;;;;;11.48;5.93;;;;;;;;;;5088983;28;20025;-74
2022/06/07 06:49:52;;;;;;;10.40;6.28;;;;;;;;;;5074772;28;20478;-82
2022/06/07 06:52:18;;;;;;;24.48;6.72;;;;;;;;;;5075018;28;20035;-81
2022/06/07 06:54:44;;;;;;;11.38;5.43;;;;;;;;;;5072635;28;20111;-80
2022/06/07 06:57:10;;;;;;;10.02;5.80;;;;;;;;;;5063973;28;20056;-80
2022/06/07 06:59:37;;;;;;;10.02;5.47;;;;;;;;;;5073272;28;20489;-79
2022/06/07 07:02:03;;;;;;;7.85;5.50;;;;;;;;;;5075594;28;20029;-78
2022/06/07 07:04:29;;;;;;;7.93;5.05;;;;;;;;;;5074774;28;20496;-79
2022/06/07 07:06:56;;;;;;;8.77;4.90;;;;;;;;;;5077865;28;20037;-79
2022/06/07 07:09:27;;;;;;;16.60;5.35;;;;;;;;;;5078475;28;20087;-84
2022/06/07 07:11:53;;;;;;;18.13;5.95;;;;;;;;;;5081786;28;20028;-77
2022/06/07 07:14:20;;;;;;;10.15;4.90;;;;;;;;;;5065979;28;20024;-75
2022/06/07 07:16:50;;;;;;;17.65;5.78;;;;;;;;;;5078081;28;20032;-76
2022/06/07 07:19:17;;;;;;;5.60;3.67;;;;;;;;;;5068989;28;20047;-79
2022/06/07 07:21:44;;;;;;;6.00;4.50;;;;;;;;;;5072912;28;20024;-79
2022/06/07 07:24:15;;;;;;;31.17;12.60;;;;;;;;;;5059900;28;20133;-81
2022/06/07 07:26:45;;;;;;;6.72;4.00;;;;;;;;;;5072316;28;20085;-79
2022/06/07 07:29:12;;;;;;;22.27;9.35;;;;;;;;;;5081693;28;20058;-80
2022/06/07 07:31:39;;;;;;;19.60;6.40;;;;;;;;;;5062726;28;20025;-78
2022/06/07 07:34:07;;;;;;;8.05;4.65;;;;;;;;;;5084069;28;20020;-83
2022/06/07 07:36:33;;;;;;;9.05;5.03;;;;;;;;;;5082292;28;20063;-81
2022/06/07 07:39:01;;;;;;;6.60;4.68;;;;;;;;;;5072104;28;20052;-77
2022/06/07 07:41:31;;;;;;;17.00;5.22;;;;;;;;;;5077781;28;20373;-79
2022/06/07 07:43:59;;;;;;;9.98;5.22;;;;;;;;;;5056173;28;20086;-77
2022/06/07 07:46:26;;;;;;;14.07;5.30;;;;;;;;;;5079038;28;20047;-79
2022/06/07 07:48:52;;;;;;;8.82;5.55;;;;;;;;;;5089221;28;20024;-78
2022/06/07 07:51:23;;;;;;;18.35;9.27;;;;;;;;;;5079523;28;20358;-84
2022/06/07 07:53:50;;;;;;;11.68;5.53;;;;;;;;;;5077330;28;20039;-75
2022/06/07 07:56:16;;;;;;;13.82;6.82;;;;;;;;;;5065597;28;20517;-76
2022/06/07 07:58:42;;;;;;;14.02;5.22;;;;;;;;;;5073380;28;20485;-74
2022/06/07 08:01:14;;;;;;;8.88;5.13;;;;;;;;;;5073231;28;20095;-77
2022/06/07 08:03:40;;;;;;;12.68;5.63;;;;;;;;;;5056426;28;20060;-80
2022/06/07 08:06:08;;;;;;;11.73;5.63;;;;;;;;;;5076211;28;20024;-71
2022/06/07 08:08:34;;;;;;;10.95;5.85;;;;;;;;;;5070129;28;20532;-80
2022/06/07 08:11:00;;;;;;;17.15;7.43;;;;;;;;;;5073519;28;20032;-76
2022/06/07 08:13:26;;;;;;;6.00;4.57;;;;;;;;;;5055476;28;20450;-78
2022/06/07 08:15:52;;;;;;;10.65;5.93;;;;;;;;;;5065736;28;20028;-72
2022/06/07 08:18:19;;;;;;;8.73;4.97;;;;;;;;;;5082195;28;20393;-80
2022/06/07 08:20:46;;;;;;;8.10;5.28;;;;;;;;;;5079060;28;20027;-80
2022/06/07 08:23:13;;;;;;;6.07;4.80;;;;;;;;;;5071135;28;20028;-81
2022/06/07 08:25:39;;;;;;;12.93;5.90;;;;;;;;;;5082835;28;20032;-73
2022/06/07 08:28:05;;;;;;;9.30;5.57;;;;;;;;;;5073391;28;20039;-73
2022/06/07 08:30:32;;;;;;;8.43;5.22;;;;;;;;;;5078158;28;20032;-75
2022/06/07 08:37:32;;;;;;;10.82;5.18;;;;;;;;;;5073528;28;20024;-77
2022/06/07 08:38:30;;;;;;;9.88;5.40;;;;;;;;;;5071540;28;20059;-77
2022/06/07 08:40:57;;;;;;;15.90;6.07;;;;;;;;;;5072779;28;20021;-76
2022/06/07 08:43:25;;;;;;;17.25;7.70;;;;;;;;;;5073586;28;20056;-76
2022/06/07 08:45:53;;;;;;;12.40;6.22;;;;;;;;;;5069419;28;20021;-79
2022/06/07 08:48:26;;;;;;;7.90;4.88;;;;;;;;;;5069790;28;20154;-77
2022/06/07 08:51:28;;;;;;;8.80;5.40;;;;;;;;;;5073490;28;20107;-76
2022/06/07 08:53:56;;;;;;;25.15;7.40;;;;;;;;;;4992382;28;20026;-75
2022/06/07 08:56:24;;;;;;;10.68;5.40;;;;;;;;;;4993920;28;20041;-76
2022/06/07 08:58:52;;;;;;;10.25;5.32;;;;;;;;;;5000499;28;20026;-77
2022/06/07 09:01:18;;;;;;;10.40;5.75;;;;;;;;;;5011280;28;20471;-76
2022/06/07 09:04:22;;;;;;;52.70;9.48;;;;;;;;;;5009995;28;20124;-77
2022/06/07 09:06:56;;;;;;;10.70;5.03;;;;;;;;;;4933805;29;20027;-76
2022/06/07 09:09:22;;;;;;;23.45;6.68;;;;;;;;;;4952850;29;20062;-77
2022/06/07 09:12:14;;;;;;;6.35;4.90;;;;;;;;;;4949469;28;20046;-77
2022/06/07 09:14:42;;;;;;;12.98;5.70;;;;;;;;;;4936539;29;20393;-76
2022/06/07 09:17:12;;;;;;;18.20;6.25;;;;;;;;;;4946772;29;20527;-74
2022/06/07 09:19:38;;;;;;;10.27;5.45;;;;;;;;;;4934274;29;20067;-75
2022/06/07 09:22:08;;;;;;;8.00;4.90;;;;;;;;;;4931195;29;20131;-75
2022/06/07 09:24:41;;;;;;;9.73;5.75;;;;;;;;;;4937630;29;20038;-75
2022/06/07 09:27:16;;;;;;;10.75;5.88;;;;;;;;;;4956598;28;20042;-74
2022/06/07 09:29:43;;;;;;;9.95;6.72;;;;;;;;;;4977546;28;20038;-75
2022/06/07 09:32:15;;;;;;;10.27;5.65;;;;;;;;;;4971102;28;20034;-75
2022/06/07 09:34:48;;;;;;;11.23;6.00;;;;;;;;;;4971570;28;20073;-74
2022/06/07 09:37:16;;;;;;;9.30;5.15;;;;;;;;;;4989828;28;20079;-74
2022/06/07 09:39:44;;;;;;;8.38;5.20;;;;;;;;;;5061601;28;20059;-75
2022/06/07 09:42:27;;;;;;;10.05;4.78;;;;;;;;;;5070597;28;20043;-75
2022/06/07 09:44:54;;;;;;;;;;;;;;;;;;5072763;28;20020;-75
2022/06/07 09:47:25;;;;;;;14.32;6.18;;;;;;;;;;5072076;28;20061;-74
2022/06/07 09:49:57;;;;;;;7.65;5.68;;;;;;;;;;5076133;28;20058;-75
2022/06/07 09:52:24;;;;;;;9.68;5.65;;;;;;;;;;5067022;28;20102;-75
2022/06/07 09:55:13;;;;;;;12.00;6.43;;;;;;;;;;5052175;28;20028;-75
2022/06/07 09:57:41;;;;;;;8.70;4.68;;;;;;;;;;4956053;28;20063;-74
2022/06/07 10:00:07;;;;;;;8.05;5.15;;;;;;;;;;4953617;28;20039;-74
2022/06/07 10:02:46;;;;;;;7.38;4.57;;;;;;;;;;4971653;28;20050;-75
2022/06/07 10:05:27;;;;;;;10.60;4.80;;;;;;;;;;4967189;28;20173;-74
2022/06/07 10:08:13;;;;;;;7.38;4.72;;;;;;;;;;4970922;28;20041;-75
2022/06/07 10:10:59;;;;;;;8.85;4.20;;;;;;;;;;4971863;28;20034;-75
2022/06/07 10:13:44;;;;;;;6.68;4.30;;;;;;;;;;4970106;28;20511;-76
2022/06/07 10:16:19;;;;;;;13.38;4.65;;;;;;;;;;4967686;28;20055;-77
2022/06/07 10:18:53;;;;;;;16.50;5.35;;;;;;;;;;4971887;28;20045;-84
2022/06/07 10:21:22;;;;;;;15.27;5.13;;;;;;;;;;4976016;28;20034;-78
2022/06/07 10:23:51;;;;;;;8.85;4.38;;;;;;;;;;4980787;28;20522;-87
2022/06/07 10:26:22;;;;;;;7.00;4.70;;;;;;;;;;4975819;28;20026;-84
2022/06/07 10:28:48;;;;;;;8.77;4.82;;;;;;;;;;4966029;28;20053;-77
2022/06/07 10:31:34;;;;;;;10.15;5.38;;;;;;;;;;4974020;28;20079;-80
2022/06/07 10:34:26;;;;;;;37.63;6.80;;;;;;;;;;4947598;28;20038;-80
2022/06/07 10:36:52;;;;;;;23.90;6.05;;;;;;;;;;4983120;28;20050;-75
2022/06/07 10:39:20;;;;;;;7.03;5.10;;;;;;;;;;4995116;28;20041;-77
2022/06/07 10:41:52;;;;;;;14.93;5.60;;;;;;;;;;5002527;28;20023;-76
2022/06/07 10:44:18;;;;;;;11.00;6.17;;;;;;;;;;4986209;28;20097;-77
2022/06/07 10:46:44;;;;;;;6.47;5.68;;;;;;;;;;4990586;28;20030;-80
2022/06/07 10:49:17;;;;;;;7.72;5.43;;;;;;;;;;4993427;28;20037;-78
2022/06/07 10:54:44;;;;;;;9.75;6.22;;;;;;;;;;4988460;28;20093;-75
2022/06/07 10:57:30;;;;;;;11.95;6.13;;;;;;;;;;4992952;28;20046;-76
2022/06/07 10:59:57;;;;;;;9.73;5.53;;;;;;;;;;4939036;29;20039;-79
2022/06/07 11:02:26;;;;;;;10.32;5.65;;;;;;;;;;4942163;29;20050;-76
2022/06/07 11:11:02;;;;;;;9.02;6.13;;;;;;;;;;4950511;28;20081;-76
2022/06/07 11:13:31;;;;;;;10.65;6.18;;;;;;;;;;4967039;28;20035;-77
2022/06/07 11:16:03;;;;;;;8.80;5.50;;;;;;;;;;4968082;28;20026;-76
2022/06/07 11:18:30;;;;;;;8.27;5.93;;;;;;;;;;4976775;28;20108;-76
2022/06/07 11:21:02;;;;;;;8.80;5.97;;;;;;;;;;4988534;28;20031;-80
2022/06/07 11:23:31;;;;;;;11.63;6.63;;;;;;;;;;4966990;28;20035;-77
2022/06/07 11:25:57;;;;;;;17.35;6.63;;;;;;;;;;4973639;28;20125;-75
2022/06/07 11:28:35;;;;;;;11.18;6.70;;;;;;;;;;4972841;28;20031;-81
2022/06/07 11:31:20;;;;;;;14.27;7.47;;;;;;;;;;4973428;28;20395;-77
2022/06/07 11:33:52;;;;;;;7.97;6.10;;;;;;;;;;4969933;28;20126;-75
2022/06/07 11:36:24;;;;;;;8.02;6.65;;;;;;;;;;4991927;28;20439;-81
2022/06/07 11:38:56;;;;;;;10.97;6.10;;;;;;;;;;5081144;28;20024;-77
2022/06/07 11:41:37;;;;;;;7.30;5.82;;;;;;;;;;5053630;28;20486;-78
2022/06/07 11:44:12;;;;;;;8.45;5.95;;;;;;;;;;5058393;28;20452;-80
2022/06/07 11:46:57;;;;;;;9.93;6.22;;;;;;;;;;5067667;28;20466;-75
2022/06/07 11:49:23;;;;;;;14.85;6.32;;;;;;;;;;5075328;28;20020;-84
2022/06/07 11:51:55;;;;;;;8.82;6.03;;;;;;;;;;5053203;28;20052;-83
2022/06/07 11:54:36;;;;;;;10.10;6.33;;;;;;;;;;5057767;28;20042;-85
2022/06/07 11:57:04;;;;;;;7.57;6.15;;;;;;;;;;5083993;28;20041;-81
2022/06/07 11:59:31;;;;;;;8.40;6.20;;;;;;;;;;5056307;28;20032;-75
2022/06/07 12:02:00;;;;;;;14.15;7.60;;;;;;;;;;5070329;28;20027;-76
2022/06/07 12:04:43;;;;;;;9.20;6.38;;;;;;;;;;5072996;28;20013;-80
2022/06/07 12:07:21;;;;;;;8.13;6.53;;;;;;;;;;5064588;28;20496;-77
2022/06/07 12:09:51;;;;;;;8.10;5.40;;;;;;;;;;5077585;28;20475;-79
2022/06/07 12:12:19;;;;;;;9.90;6.10;;;;;;;;;;5056112;28;20032;-83
2022/06/07 12:14:49;;;;;;;7.43;5.72;;;;;;;;;;5074144;28;20036;-78
2022/06/07 12:17:21;;;;;;;15.88;6.60;;;;;;;;;;5058312;28;20488;-82
2022/06/07 12:19:47;;;;;;;8.18;6.00;;;;;;;;;;5071484;28;20017;-80
2022/06/07 12:22:15;;;;;;;10.20;5.32;;;;;;;;;;5074247;28;20025;-81
2022/06/07 12:25:06;;;;;;;26.65;6.07;;;;;;;;;;5073783;28;20031;-78
2022/06/07 12:27:44;;;;;;;7.53;5.60;;;;;;;;;;5072304;28;20115;-79
2022/06/07 12:30:25;;;;;;;23.65;6.60;;;;;;;;;;5072955;28;20017;-79
2022/06/07 12:32:54;;;;;;;8.15;5.55;;;;;;;;;;5048259;28;20084;-80
2022/06/07 12:35:20;;;;;;;12.18;6.18;;;;;;;;;;5073228;28;20021;-82
2022/06/07 12:37:49;;;;;;;10.85;6.20;;;;;;;;;;5055362;28;20039;-79
2022/06/07 12:40:21;;;;;;;7.43;6.15;;;;;;;;;;5053711;28;20024;-80
2022/06/07 12:42:47;;;;;;;28.43;6.57;;;;;;;;;;5054885;28;20041;-78
2022/06/07 12:45:34;;;;;;;8.50;5.53;;;;;;;;;;5073163;28;20032;-80
2022/06/07 12:48:06;;;;;;;11.85;6.68;;;;;;;;;;5055097;28;20032;-80
2022/06/07 12:50:35;;;;;;;8.57;5.90;;;;;;;;;;5068685;28;20115;-80
2022/06/07 12:53:01;;;;;;;7.70;6.05;;;;;;;;;;5053974;28;20509;-79
2022/06/07 12:55:32;;;;;;;9.27;6.10;;;;;;;;;;5055065;28;20043;-83
2022/06/07 12:58:03;;;;;;;8.38;5.82;;;;;;;;;;5073250;28;20487;-80
2022/06/07 13:00:32;;;;;;;20.98;6.10;;;;;;;;;;5054743;28;20042;-82
2022/06/07 13:02:58;;;;;;;10.85;5.38;;;;;;;;;;5055061;28;20024;-80
2022/06/07 13:05:30;;;;;;;8.32;5.50;;;;;;;;;;5054043;28;20021;-80
2022/06/07 13:07:57;;;;;;;7.47;5.25;;;;;;;;;;5051431;28;20027;-79
2022/06/07 13:10:28;;;;;;;17.80;6.43;;;;;;;;;;5068377;28;20025;-79
2022/06/07 13:12:56;;;;;;;7.82;5.45;;;;;;;;;;5070589;28;20024;-75
2022/06/07 13:15:24;;;;;;;14.27;5.82;;;;;;;;;;5054102;28;20021;-81
2022/06/07 13:17:56;;;;;;;11.77;6.03;;;;;;;;;;5069190;28;20119;-78
2022/06/07 13:20:24;;;;;;;24.85;7.15;;;;;;;;;;5056838;28;20028;-75
2022/06/07 13:22:50;;;;;;;10.57;7.10;;;;;;;;;;5051544;28;20040;-80
2022/06/07 13:25:19;;;;;;;5.35;4.78;;;;;;;;;;5073259;28;20087;-85
2022/06/07 13:27:51;;;;;;;8.02;5.38;;;;;;;;;;5054067;28;20052;-80
2022/06/07 13:30:24;;;;;;;7.95;4.97;;;;;;;;;;5070495;28;20048;-81
2022/06/07 13:33:00;;;;;;;21.67;5.90;;;;;;;;;;5070197;28;20031;-83
2022/06/07 13:35:29;;;;;;;6.20;5.05;;;;;;;;;;5052561;28;20043;-79
2022/06/07 13:38:06;;;;;;;11.73;4.90;;;;;;;;;;5078453;28;20032;-84
2022/06/07 13:40:34;;;;;;;11.48;4.72;;;;;;;;;;5069388;28;20020;-87
2022/06/07 13:43:09;;;;;;;11.88;4.90;;;;;;;;;;5069776;28;20107;-81
2022/06/07 13:45:42;;;;;;;8.60;5.00;;;;;;;;;;5048667;28;20040;-79
2022/06/07 13:48:12;;;;;;;10.52;5.18;;;;;;;;;;5069819;28;20048;-79
2022/06/07 13:53:44;;;;;;;9.00;7.60;;;;;;;;;;5070980;28;20050;-76
2022/06/07 13:56:14;;;;;;;9.57;5.53;;;;;;;;;;5066883;28;20021;-78
2022/06/07 13:58:41;;;;;;;7.72;5.00;;;;;;;;;;5053558;28;20299;-79
2022/06/07 14:01:13;;;;;;;11.68;5.10;;;;;;;;;;5070950;28;20069;-79
2022/06/07 14:03:40;;;;;;;8.43;4.93;;;;;;;;;;5049349;28;20071;-79
2022/06/07 14:06:18;;;;;;;14.80;6.30;;;;;;;;;;5071889;28;20355;-79
2022/06/07 14:08:44;;;;;;;10.60;4.93;;;;;;;;;;5055883;28;20055;-78
2022/06/07 14:11:11;;;;;;;7.68;4.70;;;;;;;;;;5072909;28;20032;-81
2022/06/07 14:13:37;;;;;;;9.77;4.45;;;;;;;;;;5066272;28;20017;-79
2022/06/07 14:16:04;;;;;;;7.95;4.93;;;;;;;;;;5051756;28;20063;-78
2022/06/07 14:18:31;;;;;;;9.88;4.70;;;;;;;;;;5051505;28;20040;-78
2022/06/07 14:20:57;;;;;;;14.05;5.68;;;;;;;;;;5070535;28;20021;-79
2022/06/07 14:23:23;;;;;;;9.40;4.78;;;;;;;;;;5053388;28;20056;-79
2022/06/07 14:25:49;;;;;;;9.55;4.95;;;;;;;;;;5052324;28;20025;-78
2022/06/07 14:28:25;;;;;;;10.63;4.70;;;;;;;;;;5066522;28;20029;-81
2022/06/07 14:30:53;;;;;;;14.32;5.47;;;;;;;;;;5070591;28;20027;-78
2022/06/07 14:33:21;;;;;;;8.88;3.95;;;;;;;;;;5070537;28;20021;-80
2022/06/07 14:35:47;;;;;;;8.65;4.50;;;;;;;;;;5053049;28;20432;-78
2022/06/07 14:38:15;;;;;;;9.30;4.32;;;;;;;;;;5070286;28;20044;-79
2022/06/07 14:40:43;;;;;;;6.28;4.63;;;;;;;;;;5052511;28;20032;-80
2022/06/07 14:43:11;;;;;;;7.90;4.50;;;;;;;;;;5070550;28;20020;-78
2022/06/07 14:45:45;;;;;;;14.30;4.70;;;;;;;;;;5069631;28;20028;-77
2022/06/07 14:48:19;;;;;;;28.75;8.00;;;;;;;;;;5066673;28;20029;-78
2022/06/07 14:50:45;;;;;;;15.35;9.88;;;;;;;;;;5074425;28;20391;-77
2022/06/07 14:53:11;;;;;;;8.88;6.18;;;;;;;;;;5053659;28;20070;-77
2022/06/07 14:55:37;;;;;;;12.23;5.28;;;;;;;;;;5070199;28;20057;-78
2022/06/07 14:58:04;;;;;;;9.38;5.05;;;;;;;;;;5069511;28;20052;-78
2022/06/07 15:00:30;;;;;;;11.25;4.72;;;;;;;;;;5051962;28;20078;-79
2022/06/07 15:03:01;;;;;;;7.20;4.72;;;;;;;;;;5078319;28;20474;-78
2022/06/07 15:05:30;;;;;;;6.85;4.50;;;;;;;;;;5053672;28;20071;-79
2022/06/07 15:08:09;;;;;;;8.90;5.18;;;;;;;;;;5070244;28;20035;-76
2022/06/07 15:10:37;;;;;;;8.75;5.00;;;;;;;;;;5074510;28;20021;-84
2022/06/07 15:13:12;;;;;;;6.80;4.97;;;;;;;;;;5056149;28;20032;-84
2022/06/07 15:15:38;;;;;;;9.27;5.20;;;;;;;;;;5049948;28;20076;-83